Aérodrome :
LOGIN :

S'inscrire | Disclaimer

   EN    FR    IT 

 










Légende :    VFR   VFR Marginal   IFR   IFR Intensif   IFR Très Intensif
Visi : 
Plafond : 
>= 8 km
>= 3000ft
5 à 8 km
1000 à 3000 ft
1500m à 5 km
500 à 1000 ft
800 à 1500m
200 à 500 ft
< 800m
< 200 ft
Symboles :   Orages  Brouillard  Fortes neiges  Fortes précipitations  Vent > 20 kt
SIGMETs :   Divers  Orages  Givrage  Turbulence  Onde Orograph.  Cendres Volcan.







- Altitude de l'aérodrome : 36 ft
- Code IATA : LTQ
- Voir les cartes d'approche


LFAT - Le Touquet

DERNIER METAR :
  • 192200Z AUTO VRB03KT 9999 BKN039 BKN066 19/16 Q1017

METARs EXPIRÉS :
  • 192130Z AUTO 24003KT 200V280 9999 BKN040 OVC060 19/17 Q1017
  • 192100Z AUTO 25004KT 220V290 9999 BKN048 BKN060 OVC070 19/17 Q1018
  • 192030Z AUTO 26004KT 230V290 9999 BKN048 OVC060 19/17 Q1018
  • 192000Z AUTO 26004KT 210V300 CAVOK 19/16 Q1018
  • 191930Z AUTO 27005KT 240V310 CAVOK 19/16 Q1017

TAF TAF LFAT
Valide du 19 à 15h jusqu'au 20 à 00h UTC


191400Z 1915/1924 23015KT 9999 BKN035
BECMG 1917/1919 22005KT
ATIS : +33 3 21 06 62 84
Pas de NOTAMs connus pour ce terrain.



MET'MAP, la Météo Aéronautique d'un coup d'oeil ! - Copyright ORBIFLY Décembre 2007 - Disclaimer

ORBIFLY MET'MAP TEAM :

Programmation & Développement : Alexandra Zaïnal
Conception & Développement : Baudouin d'Aumeries
Co-Programmation & Développement : Marc-Olivier Méhu
Soutien technique & logistique : Manuel Goepfert

Contact : metmap@orbifly.com




SOURCES & CREDITS :

   NOAA